Terminal Aerodrome Forecast
Issued by NWS

Home | Current Version | Previous Version | Text Only | Print | Product List | Glossary On
Versions: 1 2 3 4 5 6 7 8 9 10 11 12 13
000
FTUS46 KLOX 152300
TAFOXR
TAF
KOXR 152320Z 1600/1624 28012KT P6SM SKC
     FM160300 VRB03KT P6SM SKC
     FM161200 VRB03KT 6SM BR SKC
     FM161600 29006KT P6SM SKC
     FM162000 27014KT P6SM SKC=

USA.gov is the U.S. government's official web portal to all federal, state and local government web resources and services.